sensor_id;sensor_type;location;lat;lon;timestamp;temperature;humidity
20246;DHT22;10281;54.406;18.556;2023-06-10T00:00:08;17.10;99.90
20246;DHT22;10281;54.406;18.556;2023-06-10T00:02:36;17.10;99.90
20246;DHT22;10281;54.406;18.556;2023-06-10T00:05:04;17.10;99.90
20246;DHT22;10281;54.406;18.556;2023-06-10T00:07:30;17.10;99.90
20246;DHT22;10281;54.406;18.556;2023-06-10T00:09:57;17.10;99.90
20246;DHT22;10281;54.406;18.556;2023-06-10T00:12:24;17.10;99.90
20246;DHT22;10281;54.406;18.556;2023-06-10T00:14:50;17.10;99.90
20246;DHT22;10281;54.406;18.556;2023-06-10T00:17:19;17.00;99.90
20246;DHT22;10281;54.406;18.556;2023-06-10T00:19:45;17.00;99.90
20246;DHT22;10281;54.406;18.556;2023-06-10T00:22:12;17.00;99.90
20246;DHT22;10281;54.406;18.556;2023-06-10T00:24:40;17.00;99.90
20246;DHT22;10281;54.406;18.556;2023-06-10T00:27:07;17.00;99.90
20246;DHT22;10281;54.406;18.556;2023-06-10T00:29:34;17.00;99.90
20246;DHT22;10281;54.406;18.556;2023-06-10T00:32:01;17.00;99.90
20246;DHT22;10281;54.406;18.556;2023-06-10T00:34:27;16.90;99.90
20246;DHT22;10281;54.406;18.556;2023-06-10T00:36:54;16.90;99.90
20246;DHT22;10281;54.406;18.556;2023-06-10T00:39:21;16.90;99.90
20246;DHT22;10281;54.406;18.556;2023-06-10T00:41:47;16.90;99.90
20246;DHT22;10281;54.406;18.556;2023-06-10T00:44:14;16.80;99.90
20246;DHT22;10281;54.406;18.556;2023-06-10T00:46:40;16.80;99.90
20246;DHT22;10281;54.406;18.556;2023-06-10T00:49:07;16.80;99.90
20246;DHT22;10281;54.406;18.556;2023-06-10T00:51:35;16.70;99.90
20246;DHT22;10281;54.406;18.556;2023-06-10T00:54:02;16.70;99.90
20246;DHT22;10281;54.406;18.556;2023-06-10T00:56:29;16.70;99.90
20246;DHT22;10281;54.406;18.556;2023-06-10T00:58:57;16.70;99.90
20246;DHT22;10281;54.406;18.556;2023-06-10T01:01:24;16.70;99.90
20246;DHT22;10281;54.406;18.556;2023-06-10T01:03:51;16.70;99.90
20246;DHT22;10281;54.406;18.556;2023-06-10T01:06:34;16.70;99.90
20246;DHT22;10281;54.406;18.556;2023-06-10T01:08:56;16.60;99.90
20246;DHT22;10281;54.406;18.556;2023-06-10T01:11:29;16.60;99.90
20246;DHT22;10281;54.406;18.556;2023-06-10T01:13:58;16.60;99.90
20246;DHT22;10281;54.406;18.556;2023-06-10T01:16:25;16.50;99.90
20246;DHT22;10281;54.406;18.556;2023-06-10T01:18:54;16.50;99.90
20246;DHT22;10281;54.406;18.556;2023-06-10T01:21:22;16.50;99.90
20246;DHT22;10281;54.406;18.556;2023-06-10T01:23:52;16.50;99.90
20246;DHT22;10281;54.406;18.556;2023-06-10T01:26:22;16.50;99.90
20246;DHT22;10281;54.406;18.556;2023-06-10T01:28:54;16.50;99.90
20246;DHT22;10281;54.406;18.556;2023-06-10T01:31:43;16.40;99.90
20246;DHT22;10281;54.406;18.556;2023-06-10T01:34:14;16.40;99.90
20246;DHT22;10281;54.406;18.556;2023-06-10T01:36:41;16.30;99.90
20246;DHT22;10281;54.406;18.556;2023-06-10T01:39:11;16.30;99.90
20246;DHT22;10281;54.406;18.556;2023-06-10T01:41:38;16.30;99.90
20246;DHT22;10281;54.406;18.556;2023-06-10T01:44:06;16.30;99.90
20246;DHT22;10281;54.406;18.556;2023-06-10T01:46:33;16.30;99.90
20246;DHT22;10281;54.406;18.556;2023-06-10T01:48:59;16.30;99.90
20246;DHT22;10281;54.406;18.556;2023-06-10T01:51:26;16.20;99.90
20246;DHT22;10281;54.406;18.556;2023-06-10T01:53:53;16.20;99.90
20246;DHT22;10281;54.406;18.556;2023-06-10T01:56:19;16.20;99.90
20246;DHT22;10281;54.406;18.556;2023-06-10T01:58:46;16.20;99.90
20246;DHT22;10281;54.406;18.556;2023-06-10T02:01:13;16.20;99.90
20246;DHT22;10281;54.406;18.556;2023-06-10T02:03:40;16.10;99.90
20246;DHT22;10281;54.406;18.556;2023-06-10T02:06:07;16.10;99.90
20246;DHT22;10281;54.406;18.556;2023-06-10T02:08:33;16.10;99.90
20246;DHT22;10281;54.406;18.556;2023-06-10T02:11:00;16.10;99.90
20246;DHT22;10281;54.406;18.556;2023-06-10T02:13:27;16.10;99.90
20246;DHT22;10281;54.406;18.556;2023-06-10T02:15:53;16.10;99.90
20246;DHT22;10281;54.406;18.556;2023-06-10T02:18:20;16.10;99.90
20246;DHT22;10281;54.406;18.556;2023-06-10T02:20:47;16.10;99.90
20246;DHT22;10281;54.406;18.556;2023-06-10T02:23:14;16.10;99.90
20246;DHT22;10281;54.406;18.556;2023-06-10T02:25:41;16.10;99.90
20246;DHT22;10281;54.406;18.556;2023-06-10T02:28:08;16.10;99.90
20246;DHT22;10281;54.406;18.556;2023-06-10T02:30:34;16.00;99.90
20246;DHT22;10281;54.406;18.556;2023-06-10T02:33:01;16.00;99.90
20246;DHT22;10281;54.406;18.556;2023-06-10T02:35:28;16.00;99.90
20246;DHT22;10281;54.406;18.556;2023-06-10T02:37:54;16.00;99.90
20246;DHT22;10281;54.406;18.556;2023-06-10T02:40:21;16.00;99.90
20246;DHT22;10281;54.406;18.556;2023-06-10T02:42:47;16.00;99.90
20246;DHT22;10281;54.406;18.556;2023-06-10T02:45:14;16.00;99.90
20246;DHT22;10281;54.406;18.556;2023-06-10T02:47:41;16.00;99.90
20246;DHT22;10281;54.406;18.556;2023-06-10T02:50:08;16.00;99.90
20246;DHT22;10281;54.406;18.556;2023-06-10T02:52:35;16.00;99.90
20246;DHT22;10281;54.406;18.556;2023-06-10T02:55:02;16.00;99.90
20246;DHT22;10281;54.406;18.556;2023-06-10T02:57:28;16.00;99.90
20246;DHT22;10281;54.406;18.556;2023-06-10T02:59:55;16.00;99.90
20246;DHT22;10281;54.406;18.556;2023-06-10T03:02:22;16.00;99.90
20246;DHT22;10281;54.406;18.556;2023-06-10T03:04:50;16.00;99.90
20246;DHT22;10281;54.406;18.556;2023-06-10T03:07:19;16.00;99.90
20246;DHT22;10281;54.406;18.556;2023-06-10T03:09:46;16.00;99.90
20246;DHT22;10281;54.406;18.556;2023-06-10T03:12:13;16.00;99.90
20246;DHT22;10281;54.406;18.556;2023-06-10T03:14:41;16.00;99.90
20246;DHT22;10281;54.406;18.556;2023-06-10T03:17:08;16.00;99.90
20246;DHT22;10281;54.406;18.556;2023-06-10T03:19:35;16.00;99.90
20246;DHT22;10281;54.406;18.556;2023-06-10T03:22:11;16.00;99.90
20246;DHT22;10281;54.406;18.556;2023-06-10T03:24:37;16.00;99.90
20246;DHT22;10281;54.406;18.556;2023-06-10T03:27:07;16.10;99.90
20246;DHT22;10281;54.406;18.556;2023-06-10T03:29:37;16.10;99.90
20246;DHT22;10281;54.406;18.556;2023-06-10T03:32:04;16.10;99.90
20246;DHT22;10281;54.406;18.556;2023-06-10T03:34:31;16.10;99.90
20246;DHT22;10281;54.406;18.556;2023-06-10T03:36:58;16.10;99.90
20246;DHT22;10281;54.406;18.556;2023-06-10T03:39:25;16.20;99.90
20246;DHT22;10281;54.406;18.556;2023-06-10T03:41:54;16.20;99.90
20246;DHT22;10281;54.406;18.556;2023-06-10T03:44:24;16.20;99.90
20246;DHT22;10281;54.406;18.556;2023-06-10T03:46:52;16.20;99.90
20246;DHT22;10281;54.406;18.556;2023-06-10T03:49:19;16.20;99.90
20246;DHT22;10281;54.406;18.556;2023-06-10T03:51:45;16.30;99.90
20246;DHT22;10281;54.406;18.556;2023-06-10T03:54:12;16.30;99.90
20246;DHT22;10281;54.406;18.556;2023-06-10T03:56:39;16.30;99.90
20246;DHT22;10281;54.406;18.556;2023-06-10T03:59:06;16.40;99.90
20246;DHT22;10281;54.406;18.556;2023-06-10T04:01:32;16.40;99.90
20246;DHT22;10281;54.406;18.556;2023-06-10T04:04:01;16.50;99.90
20246;DHT22;10281;54.406;18.556;2023-06-10T04:06:28;16.50;99.90
20246;DHT22;10281;54.406;18.556;2023-06-10T04:08:55;16.60;99.90
20246;DHT22;10281;54.406;18.556;2023-06-10T04:11:24;16.60;99.90
20246;DHT22;10281;54.406;18.556;2023-06-10T04:13:51;16.70;99.90
20246;DHT22;10281;54.406;18.556;2023-06-10T04:16:18;16.70;99.90
20246;DHT22;10281;54.406;18.556;2023-06-10T04:18:44;16.80;99.90
20246;DHT22;10281;54.406;18.556;2023-06-10T04:21:11;16.80;99.90
20246;DHT22;10281;54.406;18.556;2023-06-10T04:23:37;16.90;99.90
20246;DHT22;10281;54.406;18.556;2023-06-10T04:26:04;17.00;99.90
20246;DHT22;10281;54.406;18.556;2023-06-10T04:28:32;17.10;99.90
20246;DHT22;10281;54.406;18.556;2023-06-10T04:30:58;17.00;99.90
20246;DHT22;10281;54.406;18.556;2023-06-10T04:33:25;17.00;99.90
20246;DHT22;10281;54.406;18.556;2023-06-10T04:35:52;17.10;99.90
20246;DHT22;10281;54.406;18.556;2023-06-10T04:38:18;17.10;99.90
20246;DHT22;10281;54.406;18.556;2023-06-10T04:40:45;17.20;99.90
20246;DHT22;10281;54.406;18.556;2023-06-10T04:43:12;17.20;99.90
20246;DHT22;10281;54.406;18.556;2023-06-10T04:45:39;17.30;99.90
20246;DHT22;10281;54.406;18.556;2023-06-10T04:48:06;17.30;99.90
20246;DHT22;10281;54.406;18.556;2023-06-10T04:50:33;17.40;99.90
20246;DHT22;10281;54.406;18.556;2023-06-10T04:53:00;17.40;99.90
20246;DHT22;10281;54.406;18.556;2023-06-10T04:55:26;17.50;99.90
20246;DHT22;10281;54.406;18.556;2023-06-10T04:57:53;17.50;99.90
20246;DHT22;10281;54.406;18.556;2023-06-10T05:00:20;17.60;99.90
20246;DHT22;10281;54.406;18.556;2023-06-10T05:02:47;17.60;99.90
20246;DHT22;10281;54.406;18.556;2023-06-10T05:05:17;17.70;99.90
20246;DHT22;10281;54.406;18.556;2023-06-10T05:07:44;17.70;99.90
20246;DHT22;10281;54.406;18.556;2023-06-10T05:10:11;17.80;99.90
20246;DHT22;10281;54.406;18.556;2023-06-10T05:12:39;17.60;99.90
20246;DHT22;10281;54.406;18.556;2023-06-10T05:15:07;17.60;99.90
20246;DHT22;10281;54.406;18.556;2023-06-10T05:17:34;17.70;99.90
20246;DHT22;10281;54.406;18.556;2023-06-10T05:20:02;17.60;99.90
20246;DHT22;10281;54.406;18.556;2023-06-10T05:22:29;17.60;99.90
20246;DHT22;10281;54.406;18.556;2023-06-10T05:24:56;17.60;99.90
20246;DHT22;10281;54.406;18.556;2023-06-10T05:27:22;17.50;99.90
20246;DHT22;10281;54.406;18.556;2023-06-10T05:29:50;17.60;99.90
20246;DHT22;10281;54.406;18.556;2023-06-10T05:32:17;17.70;99.90
20246;DHT22;10281;54.406;18.556;2023-06-10T05:34:44;17.70;99.90
20246;DHT22;10281;54.406;18.556;2023-06-10T05:37:12;17.60;99.90
20246;DHT22;10281;54.406;18.556;2023-06-10T05:39:38;17.70;99.90
20246;DHT22;10281;54.406;18.556;2023-06-10T05:42:11;17.90;99.90
20246;DHT22;10281;54.406;18.556;2023-06-10T05:44:38;18.00;99.90
20246;DHT22;10281;54.406;18.556;2023-06-10T05:47:05;17.90;99.90
20246;DHT22;10281;54.406;18.556;2023-06-10T05:49:31;18.00;99.90
20246;DHT22;10281;54.406;18.556;2023-06-10T05:51:58;18.00;99.90
20246;DHT22;10281;54.406;18.556;2023-06-10T05:54:25;18.00;99.90
20246;DHT22;10281;54.406;18.556;2023-06-10T05:56:52;18.10;99.90
20246;DHT22;10281;54.406;18.556;2023-06-10T05:59:19;18.00;99.90
20246;DHT22;10281;54.406;18.556;2023-06-10T06:01:45;17.90;99.90
20246;DHT22;10281;54.406;18.556;2023-06-10T06:04:12;18.00;99.90
20246;DHT22;10281;54.406;18.556;2023-06-10T06:06:39;18.20;99.90
20246;DHT22;10281;54.406;18.556;2023-06-10T06:09:06;18.30;99.90
20246;DHT22;10281;54.406;18.556;2023-06-10T06:11:34;18.30;99.90
20246;DHT22;10281;54.406;18.556;2023-06-10T06:14:01;18.40;99.90
20246;DHT22;10281;54.406;18.556;2023-06-10T06:16:28;18.40;99.90
20246;DHT22;10281;54.406;18.556;2023-06-10T06:18:54;18.50;99.90
20246;DHT22;10281;54.406;18.556;2023-06-10T06:21:21;18.50;99.90
20246;DHT22;10281;54.406;18.556;2023-06-10T06:23:48;18.50;99.90
20246;DHT22;10281;54.406;18.556;2023-06-10T06:26:14;18.50;99.90
20246;DHT22;10281;54.406;18.556;2023-06-10T06:28:41;18.60;99.90
20246;DHT22;10281;54.406;18.556;2023-06-10T06:31:07;18.50;99.90
20246;DHT22;10281;54.406;18.556;2023-06-10T06:33:34;18.50;99.90
20246;DHT22;10281;54.406;18.556;2023-06-10T06:36:01;18.70;99.90
20246;DHT22;10281;54.406;18.556;2023-06-10T06:38:27;18.70;99.90
20246;DHT22;10281;54.406;18.556;2023-06-10T06:40:54;18.70;99.90
20246;DHT22;10281;54.406;18.556;2023-06-10T06:43:21;18.70;99.90
20246;DHT22;10281;54.406;18.556;2023-06-10T06:45:47;18.70;99.90
20246;DHT22;10281;54.406;18.556;2023-06-10T06:48:14;18.70;99.90
20246;DHT22;10281;54.406;18.556;2023-06-10T06:50:40;18.70;99.90
20246;DHT22;10281;54.406;18.556;2023-06-10T06:53:08;18.60;99.90
20246;DHT22;10281;54.406;18.556;2023-06-10T06:55:34;18.50;99.90
20246;DHT22;10281;54.406;18.556;2023-06-10T06:58:01;18.50;99.90
20246;DHT22;10281;54.406;18.556;2023-06-10T07:00:30;18.40;99.90
20246;DHT22;10281;54.406;18.556;2023-06-10T07:02:57;18.40;99.90
20246;DHT22;10281;54.406;18.556;2023-06-10T07:05:24;18.50;99.90
20246;DHT22;10281;54.406;18.556;2023-06-10T07:07:54;18.50;99.90
20246;DHT22;10281;54.406;18.556;2023-06-10T07:10:25;18.50;99.90
20246;DHT22;10281;54.406;18.556;2023-06-10T07:12:52;18.50;99.90
20246;DHT22;10281;54.406;18.556;2023-06-10T07:15:19;18.50;99.90
20246;DHT22;10281;54.406;18.556;2023-06-10T07:17:46;18.40;99.90
20246;DHT22;10281;54.406;18.556;2023-06-10T07:20:12;18.40;99.90
20246;DHT22;10281;54.406;18.556;2023-06-10T07:22:42;18.50;99.90
20246;DHT22;10281;54.406;18.556;2023-06-10T07:25:09;18.60;99.90
20246;DHT22;10281;54.406;18.556;2023-06-10T07:27:35;18.50;99.90
20246;DHT22;10281;54.406;18.556;2023-06-10T07:30:04;18.50;99.90
20246;DHT22;10281;54.406;18.556;2023-06-10T07:32:32;18.50;99.90
20246;DHT22;10281;54.406;18.556;2023-06-10T07:34:59;18.50;99.90
20246;DHT22;10281;54.406;18.556;2023-06-10T07:37:26;18.40;99.90
20246;DHT22;10281;54.406;18.556;2023-06-10T07:39:52;18.40;99.90
20246;DHT22;10281;54.406;18.556;2023-06-10T07:42:19;18.40;99.90
20246;DHT22;10281;54.406;18.556;2023-06-10T07:44:46;18.40;99.90
20246;DHT22;10281;54.406;18.556;2023-06-10T07:47:13;18.50;99.90
20246;DHT22;10281;54.406;18.556;2023-06-10T07:49:39;18.50;99.90
20246;DHT22;10281;54.406;18.556;2023-06-10T07:52:08;18.50;99.90
20246;DHT22;10281;54.406;18.556;2023-06-10T07:54:34;18.50;99.90
20246;DHT22;10281;54.406;18.556;2023-06-10T07:57:01;18.50;99.90
20246;DHT22;10281;54.406;18.556;2023-06-10T07:59:27;18.60;99.90
20246;DHT22;10281;54.406;18.556;2023-06-10T08:01:55;18.70;99.90
20246;DHT22;10281;54.406;18.556;2023-06-10T08:04:21;18.70;99.90
20246;DHT22;10281;54.406;18.556;2023-06-10T08:06:48;18.80;99.90
20246;DHT22;10281;54.406;18.556;2023-06-10T08:09:15;18.80;99.90
20246;DHT22;10281;54.406;18.556;2023-06-10T08:11:46;18.70;99.90
20246;DHT22;10281;54.406;18.556;2023-06-10T08:14:13;18.80;99.90
20246;DHT22;10281;54.406;18.556;2023-06-10T08:16:40;18.80;99.90
20246;DHT22;10281;54.406;18.556;2023-06-10T08:19:06;18.80;99.90
20246;DHT22;10281;54.406;18.556;2023-06-10T08:21:35;18.90;99.90
20246;DHT22;10281;54.406;18.556;2023-06-10T08:24:06;18.90;99.90
20246;DHT22;10281;54.406;18.556;2023-06-10T08:26:33;18.90;99.90
20246;DHT22;10281;54.406;18.556;2023-06-10T08:28:59;18.90;99.90
20246;DHT22;10281;54.406;18.556;2023-06-10T08:31:26;18.90;99.90
20246;DHT22;10281;54.406;18.556;2023-06-10T08:33:53;18.80;99.90
20246;DHT22;10281;54.406;18.556;2023-06-10T08:36:19;18.80;99.90
20246;DHT22;10281;54.406;18.556;2023-06-10T08:38:46;18.80;99.90
20246;DHT22;10281;54.406;18.556;2023-06-10T08:41:14;18.90;99.90
20246;DHT22;10281;54.406;18.556;2023-06-10T08:43:48;18.70;99.90
20246;DHT22;10281;54.406;18.556;2023-06-10T08:46:14;18.70;99.90
20246;DHT22;10281;54.406;18.556;2023-06-10T08:48:43;18.80;99.90
20246;DHT22;10281;54.406;18.556;2023-06-10T08:51:11;18.90;99.90
20246;DHT22;10281;54.406;18.556;2023-06-10T08:53:43;19.00;99.90
20246;DHT22;10281;54.406;18.556;2023-06-10T08:56:09;19.00;99.90
20246;DHT22;10281;54.406;18.556;2023-06-10T08:58:36;18.80;99.90
20246;DHT22;10281;54.406;18.556;2023-06-10T09:01:05;18.50;99.90
20246;DHT22;10281;54.406;18.556;2023-06-10T09:03:32;18.50;99.90
20246;DHT22;10281;54.406;18.556;2023-06-10T09:06:03;18.50;99.90
20246;DHT22;10281;54.406;18.556;2023-06-10T09:08:31;18.50;99.90
20246;DHT22;10281;54.406;18.556;2023-06-10T09:10:57;18.70;99.90
20246;DHT22;10281;54.406;18.556;2023-06-10T09:13:24;18.70;99.90
20246;DHT22;10281;54.406;18.556;2023-06-10T09:15:51;18.60;99.90
20246;DHT22;10281;54.406;18.556;2023-06-10T09:18:17;18.60;99.90
20246;DHT22;10281;54.406;18.556;2023-06-10T09:20:45;18.60;99.90
20246;DHT22;10281;54.406;18.556;2023-06-10T09:23:12;18.70;99.90
20246;DHT22;10281;54.406;18.556;2023-06-10T09:25:39;18.70;99.90
20246;DHT22;10281;54.406;18.556;2023-06-10T09:28:13;18.70;99.90
20246;DHT22;10281;54.406;18.556;2023-06-10T09:30:40;18.80;99.90
20246;DHT22;10281;54.406;18.556;2023-06-10T09:33:12;18.70;99.90
20246;DHT22;10281;54.406;18.556;2023-06-10T09:35:49;18.60;99.90
20246;DHT22;10281;54.406;18.556;2023-06-10T09:38:21;18.60;99.90
20246;DHT22;10281;54.406;18.556;2023-06-10T09:40:50;18.50;99.90
20246;DHT22;10281;54.406;18.556;2023-06-10T09:43:17;18.60;99.90
20246;DHT22;10281;54.406;18.556;2023-06-10T09:45:48;18.50;99.90
20246;DHT22;10281;54.406;18.556;2023-06-10T09:48:15;18.30;99.90
20246;DHT22;10281;54.406;18.556;2023-06-10T09:50:43;18.20;99.90
20246;DHT22;10281;54.406;18.556;2023-06-10T09:53:11;18.20;99.90
20246;DHT22;10281;54.406;18.556;2023-06-10T09:55:40;18.30;99.90
20246;DHT22;10281;54.406;18.556;2023-06-10T09:58:07;18.40;99.90
20246;DHT22;10281;54.406;18.556;2023-06-10T10:00:34;18.40;99.90
20246;DHT22;10281;54.406;18.556;2023-06-10T10:03:01;18.50;99.90
20246;DHT22;10281;54.406;18.556;2023-06-10T10:05:28;18.40;99.90
20246;DHT22;10281;54.406;18.556;2023-06-10T10:07:55;18.40;99.90
20246;DHT22;10281;54.406;18.556;2023-06-10T10:10:22;18.20;99.90
20246;DHT22;10281;54.406;18.556;2023-06-10T10:12:56;18.20;99.90
20246;DHT22;10281;54.406;18.556;2023-06-10T10:15:25;18.00;99.90
20246;DHT22;10281;54.406;18.556;2023-06-10T10:17:57;18.00;99.90
20246;DHT22;10281;54.406;18.556;2023-06-10T10:20:29;18.20;99.90
20246;DHT22;10281;54.406;18.556;2023-06-10T10:22:57;18.30;99.90
20246;DHT22;10281;54.406;18.556;2023-06-10T10:25:29;18.20;99.90
20246;DHT22;10281;54.406;18.556;2023-06-10T10:28:02;18.10;99.90
20246;DHT22;10281;54.406;18.556;2023-06-10T10:30:30;18.20;99.90
20246;DHT22;10281;54.406;18.556;2023-06-10T10:33:05;18.30;99.90
20246;DHT22;10281;54.406;18.556;2023-06-10T10:35:34;18.20;99.90
20246;DHT22;10281;54.406;18.556;2023-06-10T10:38:02;18.20;99.90
20246;DHT22;10281;54.406;18.556;2023-06-10T10:40:29;18.40;99.90
20246;DHT22;10281;54.406;18.556;2023-06-10T10:42:59;18.40;99.90
20246;DHT22;10281;54.406;18.556;2023-06-10T10:45:28;18.50;99.90
20246;DHT22;10281;54.406;18.556;2023-06-10T10:47:56;18.30;99.90
20246;DHT22;10281;54.406;18.556;2023-06-10T10:50:23;18.50;99.90
20246;DHT22;10281;54.406;18.556;2023-06-10T10:52:59;18.60;99.90
20246;DHT22;10281;54.406;18.556;2023-06-10T10:55:27;18.60;99.90
20246;DHT22;10281;54.406;18.556;2023-06-10T10:57:57;18.60;99.90
20246;DHT22;10281;54.406;18.556;2023-06-10T11:00:28;18.70;99.90
20246;DHT22;10281;54.406;18.556;2023-06-10T11:03:00;18.70;99.90
20246;DHT22;10281;54.406;18.556;2023-06-10T11:05:36;18.70;99.90
20246;DHT22;10281;54.406;18.556;2023-06-10T11:08:06;18.50;99.90
20246;DHT22;10281;54.406;18.556;2023-06-10T11:10:35;18.50;99.90
20246;DHT22;10281;54.406;18.556;2023-06-10T11:13:12;18.60;99.90
20246;DHT22;10281;54.406;18.556;2023-06-10T11:15:44;18.60;99.90
20246;DHT22;10281;54.406;18.556;2023-06-10T11:21:04;18.80;99.90
20246;DHT22;10281;54.406;18.556;2023-06-10T11:23:38;18.80;99.90
20246;DHT22;10281;54.406;18.556;2023-06-10T11:29:05;18.90;99.90
20246;DHT22;10281;54.406;18.556;2023-06-10T11:31:45;18.90;99.90
20246;DHT22;10281;54.406;18.556;2023-06-10T11:34:13;18.90;99.90
20246;DHT22;10281;54.406;18.556;2023-06-10T11:36:41;18.90;99.90
20246;DHT22;10281;54.406;18.556;2023-06-10T11:39:11;18.90;99.90
20246;DHT22;10281;54.406;18.556;2023-06-10T11:41:38;19.00;99.90
20246;DHT22;10281;54.406;18.556;2023-06-10T11:44:09;19.00;99.90
20246;DHT22;10281;54.406;18.556;2023-06-10T11:46:37;19.00;99.90
20246;DHT22;10281;54.406;18.556;2023-06-10T11:49:04;19.00;99.90
20246;DHT22;10281;54.406;18.556;2023-06-10T11:51:35;19.10;99.90
20246;DHT22;10281;54.406;18.556;2023-06-10T11:54:02;19.10;99.90
20246;DHT22;10281;54.406;18.556;2023-06-10T11:56:31;19.10;99.90
20246;DHT22;10281;54.406;18.556;2023-06-10T11:59:00;19.00;99.90
20246;DHT22;10281;54.406;18.556;2023-06-10T12:01:30;18.70;99.90
20246;DHT22;10281;54.406;18.556;2023-06-10T12:04:01;18.60;99.90
20246;DHT22;10281;54.406;18.556;2023-06-10T12:07:02;18.60;99.90
20246;DHT22;10281;54.406;18.556;2023-06-10T12:09:20;18.40;99.90
20246;DHT22;10281;54.406;18.556;2023-06-10T12:12:02;18.60;99.90
20246;DHT22;10281;54.406;18.556;2023-06-10T12:17:07;18.60;99.90
20246;DHT22;10281;54.406;18.556;2023-06-10T12:19:38;18.60;99.90
20246;DHT22;10281;54.406;18.556;2023-06-10T12:22:05;18.80;99.90
20246;DHT22;10281;54.406;18.556;2023-06-10T12:24:32;18.80;99.90
20246;DHT22;10281;54.406;18.556;2023-06-10T12:26:59;18.90;99.90
20246;DHT22;10281;54.406;18.556;2023-06-10T12:29:25;18.90;99.90
20246;DHT22;10281;54.406;18.556;2023-06-10T12:31:56;18.90;99.90
20246;DHT22;10281;54.406;18.556;2023-06-10T12:34:29;18.90;99.90
20246;DHT22;10281;54.406;18.556;2023-06-10T12:36:56;18.90;99.90
20246;DHT22;10281;54.406;18.556;2023-06-10T12:39:23;18.90;99.90
20246;DHT22;10281;54.406;18.556;2023-06-10T12:41:51;19.00;99.90
20246;DHT22;10281;54.406;18.556;2023-06-10T12:44:19;18.90;99.90
20246;DHT22;10281;54.406;18.556;2023-06-10T12:46:53;18.80;99.90
20246;DHT22;10281;54.406;18.556;2023-06-10T12:49:19;18.70;99.90
20246;DHT22;10281;54.406;18.556;2023-06-10T12:51:47;18.80;99.90
20246;DHT22;10281;54.406;18.556;2023-06-10T12:54:14;18.80;99.90
20246;DHT22;10281;54.406;18.556;2023-06-10T12:56:40;18.80;99.90
20246;DHT22;10281;54.406;18.556;2023-06-10T12:59:07;18.80;99.90
20246;DHT22;10281;54.406;18.556;2023-06-10T13:01:33;18.80;99.90
20246;DHT22;10281;54.406;18.556;2023-06-10T13:04:00;18.90;99.90
20246;DHT22;10281;54.406;18.556;2023-06-10T13:06:27;18.90;99.90
20246;DHT22;10281;54.406;18.556;2023-06-10T13:08:54;18.70;99.90
20246;DHT22;10281;54.406;18.556;2023-06-10T13:11:21;18.80;99.90
20246;DHT22;10281;54.406;18.556;2023-06-10T13:13:49;18.90;99.90
20246;DHT22;10281;54.406;18.556;2023-06-10T13:16:15;18.70;99.90
20246;DHT22;10281;54.406;18.556;2023-06-10T13:18:42;18.70;99.90
20246;DHT22;10281;54.406;18.556;2023-06-10T13:21:09;18.60;99.90
20246;DHT22;10281;54.406;18.556;2023-06-10T13:23:35;18.60;99.90
20246;DHT22;10281;54.406;18.556;2023-06-10T13:26:02;18.70;99.90
20246;DHT22;10281;54.406;18.556;2023-06-10T13:28:29;18.70;99.90
20246;DHT22;10281;54.406;18.556;2023-06-10T13:30:56;18.70;99.90
20246;DHT22;10281;54.406;18.556;2023-06-10T13:33:23;18.60;99.90
20246;DHT22;10281;54.406;18.556;2023-06-10T13:35:50;18.50;99.90
20246;DHT22;10281;54.406;18.556;2023-06-10T13:38:16;18.50;99.90
20246;DHT22;10281;54.406;18.556;2023-06-10T13:40:43;18.50;99.90
20246;DHT22;10281;54.406;18.556;2023-06-10T13:43:10;18.50;99.90
20246;DHT22;10281;54.406;18.556;2023-06-10T13:45:37;18.50;99.90
20246;DHT22;10281;54.406;18.556;2023-06-10T13:48:04;18.40;99.90
20246;DHT22;10281;54.406;18.556;2023-06-10T13:50:31;18.40;99.90
20246;DHT22;10281;54.406;18.556;2023-06-10T13:52:58;18.50;99.90
20246;DHT22;10281;54.406;18.556;2023-06-10T13:55:25;18.40;99.90
20246;DHT22;10281;54.406;18.556;2023-06-10T13:57:52;18.40;99.90
20246;DHT22;10281;54.406;18.556;2023-06-10T14:00:18;18.40;99.90
20246;DHT22;10281;54.406;18.556;2023-06-10T14:02:45;18.50;99.90
20246;DHT22;10281;54.406;18.556;2023-06-10T14:05:12;18.60;99.90
20246;DHT22;10281;54.406;18.556;2023-06-10T14:07:39;18.70;99.90
20246;DHT22;10281;54.406;18.556;2023-06-10T14:10:07;18.80;99.90
20246;DHT22;10281;54.406;18.556;2023-06-10T14:12:34;18.80;99.90
20246;DHT22;10281;54.406;18.556;2023-06-10T14:15:01;18.80;99.90
20246;DHT22;10281;54.406;18.556;2023-06-10T14:17:28;18.80;99.90
20246;DHT22;10281;54.406;18.556;2023-06-10T14:19:55;18.80;99.90
20246;DHT22;10281;54.406;18.556;2023-06-10T14:22:22;18.80;99.90
20246;DHT22;10281;54.406;18.556;2023-06-10T14:24:48;18.80;99.90
20246;DHT22;10281;54.406;18.556;2023-06-10T14:27:15;18.80;99.90
20246;DHT22;10281;54.406;18.556;2023-06-10T14:29:41;18.70;99.90
20246;DHT22;10281;54.406;18.556;2023-06-10T14:32:08;18.80;99.90
20246;DHT22;10281;54.406;18.556;2023-06-10T14:34:35;18.80;99.90
20246;DHT22;10281;54.406;18.556;2023-06-10T14:37:02;18.60;99.90
20246;DHT22;10281;54.406;18.556;2023-06-10T14:39:30;18.60;99.90
20246;DHT22;10281;54.406;18.556;2023-06-10T14:41:56;18.60;99.90
20246;DHT22;10281;54.406;18.556;2023-06-10T14:44:23;18.60;99.90
20246;DHT22;10281;54.406;18.556;2023-06-10T14:46:50;18.60;99.50
20246;DHT22;10281;54.406;18.556;2023-06-10T14:49:16;18.70;99.90
20246;DHT22;10281;54.406;18.556;2023-06-10T14:51:43;18.70;99.90
20246;DHT22;10281;54.406;18.556;2023-06-10T14:54:10;18.70;99.90
20246;DHT22;10281;54.406;18.556;2023-06-10T14:56:37;18.80;99.90
20246;DHT22;10281;54.406;18.556;2023-06-10T14:59:03;18.70;99.90
20246;DHT22;10281;54.406;18.556;2023-06-10T15:01:30;18.70;99.90
20246;DHT22;10281;54.406;18.556;2023-06-10T15:03:56;18.70;99.90
20246;DHT22;10281;54.406;18.556;2023-06-10T15:06:23;18.70;99.90
20246;DHT22;10281;54.406;18.556;2023-06-10T15:08:50;18.70;99.90
20246;DHT22;10281;54.406;18.556;2023-06-10T15:11:17;18.80;99.90
20246;DHT22;10281;54.406;18.556;2023-06-10T15:13:44;18.80;99.90
20246;DHT22;10281;54.406;18.556;2023-06-10T15:16:11;18.90;99.90
20246;DHT22;10281;54.406;18.556;2023-06-10T15:18:37;18.90;99.90
20246;DHT22;10281;54.406;18.556;2023-06-10T15:21:04;18.80;99.90
20246;DHT22;10281;54.406;18.556;2023-06-10T15:23:31;18.90;99.90
20246;DHT22;10281;54.406;18.556;2023-06-10T15:25:58;18.90;99.90